Stolt Spray — ZCSQ9 — position and weather

sailwx.info

Track history (hours):
 
Tides and Currents Weather Stations Pressure Air Temp Water Temp Dewpoint Dewpoint Depression Visibility Wind Speed Wind Dir Waves Ship Positions

Stolt Spray

Last reported at 2015-May-05 23:14 UTC. Time now 2015-May-29 14:17 UTC.
Position N 29°31' W 094°53'.
Warning: this ship's position is 23 days out of date.

Length 163 m; draft 10.4 m.

Type: Tanker. MMSI: 319591000.

Date/timePositionNaut miles runAvg speedWind from/ knotsBaromVisibWave heightAir tempDewpointWater temp
2015-May-05 23:14N 29°31' W 094°53'811.6
2015-May-05 22:33N 29°37' W 094°58'11 0.3
2015-May-04 04:33N 29°45' W 095°06'6 5.7
2015-May-04 03:33N 29°42' W 095°00'8 8.0
2015-May-04 02:33N 29°35' W 094°56'1211.6
2015-May-04 01:33N 29°25' W 094°49'  
2015-Apr-29 10:04N 29°22' W 094°48'510.2
2015-Apr-29 09:33N 29°27' W 094°51'10 9.8
2015-Apr-29 08:34N 29°35' W 094°56'9 8.6
2015-Apr-29 07:34N 29°43' W 095°01'4 3.7
2015-Apr-29 06:21N 29°45' W 095°06'0 0.0
2015-Apr-29 05:30N 29°45' W 095°06'0 0.0
2015-Apr-29 04:33N 29°45' W 095°06'0 0.0
2015-Apr-29 03:33N 29°45' W 095°06'0 0.0
2015-Apr-29 02:33N 29°45' W 095°06'0 0.0
2015-Apr-29 01:33N 29°45' W 095°06'0 0.0
2015-Apr-29 00:27N 29°45' W 095°06'0 0.0
2015-Apr-28 23:30N 29°45' W 095°06'0 0.0
2015-Apr-28 22:27N 29°45' W 095°06'0 0.0
2015-Apr-28 21:27N 29°45' W 095°06'0 0.0
2015-Apr-28 20:27N 29°45' W 095°06'0 0.0
2015-Apr-28 19:33N 29°45' W 095°06'0 0.0
2015-Apr-28 17:15N 29°45' W 095°06'0 0.0
2015-Apr-28 16:33N 29°45' W 095°06'0 0.0
2015-Apr-28 15:24N 29°45' W 095°06'0 0.0
2015-Apr-28 14:21N 29°45' W 095°06'0 0.0
2015-Apr-28 13:21N 29°45' W 095°06'0 0.0
2015-Apr-28 12:27N 29°45' W 095°06'0 0.0
2015-Apr-28 11:24N 29°45' W 095°06'0 0.0
2015-Apr-28 10:30N 29°45' W 095°06'0 0.0
2015-Apr-28 09:21N 29°45' W 095°06'0 0.0
2015-Apr-28 08:06N 29°45' W 095°06'0 0.0
2015-Apr-28 07:21N 29°45' W 095°06'0 0.0
2015-Apr-28 06:06N 29°45' W 095°06'0 0.0
2015-Apr-28 05:33N 29°45' W 095°06'0 0.0
2015-Apr-28 04:24N 29°45' W 095°06'0 0.0
2015-Apr-28 02:30N 29°45' W 095°06'0 0.0
2015-Apr-28 01:18N 29°45' W 095°06'0 0.0
2015-Apr-28 00:24N 29°45' W 095°06'0 0.0
2015-Apr-27 23:33N 29°45' W 095°06'0 0.0
2015-Apr-27 22:33N 29°45' W 095°06'0 0.0
2015-Apr-27 21:09N 29°45' W 095°06'0 0.0
2015-Apr-27 20:12N 29°45' W 095°06'0 0.0
2015-Apr-27 19:33N 29°45' W 095°06'0 0.0
2015-Apr-27 18:33N 29°45' W 095°06'0 0.0
2015-Apr-27 17:33N 29°45' W 095°06'0 0.0
2015-Apr-27 16:30N 29°45' W 095°06'0 0.0
2015-Apr-27 15:33N 29°45' W 095°06'0 0.0
2015-Apr-27 14:33N 29°45' W 095°06'0 0.0
2015-Apr-27 13:27N 29°45' W 095°06'2 1.8
2015-Apr-27 12:33N 29°44' W 095°08'0 0.0
2015-Apr-27 11:33N 29°44' W 095°08'0 0.0
2015-Apr-27 10:33N 29°44' W 095°08'0 0.0
2015-Apr-27 09:33N 29°44' W 095°08'0 0.0
2015-Apr-27 08:33N 29°44' W 095°08'0 0.0
2015-Apr-27 07:33N 29°44' W 095°08'0 0.0
2015-Apr-27 06:33N 29°44' W 095°08'0 0.0
2015-Apr-27 05:33N 29°44' W 095°08'0 0.0
2015-Apr-27 04:33N 29°44' W 095°08'0 0.0
2015-Apr-27 03:33N 29°44' W 095°08'0 0.0
2015-Apr-27 02:33N 29°44' W 095°08'0 0.0
2015-Apr-27 01:33N 29°44' W 095°08'0 0.0
2015-Apr-27 00:33N 29°44' W 095°08'0 0.0
2015-Apr-26 23:33N 29°44' W 095°08'0 0.0
2015-Apr-26 22:33N 29°44' W 095°08'0 0.0
2015-Apr-26 21:32N 29°44' W 095°08'0 0.0
2015-Apr-26 20:33N 29°44' W 095°08'3 3.1
2015-Apr-26 19:34N 29°46' W 095°05'8 8.2
2015-Apr-26 18:33N 29°40' W 094°58'1313.0
2015-Apr-26 17:33N 29°28' W 094°51'16 1.7
2015-Apr-26 08:30N 29°20' W 094°36'  
Track history (hours):
 
Tides and Currents Weather Stations Pressure Air Temp Water Temp Dewpoint Dewpoint Depression Visibility Wind Speed Wind Dir Waves Ship Positions

Stolt Spray

Last reported at 2015-May-05 23:14 UTC. Time now 2015-May-29 14:17 UTC.
Position N 29°31' W 094°53'.
Warning: this ship's position is 23 days out of date.

Length 163 m; draft 10.4 m.

Type: Tanker. MMSI: 319591000.

Date/timePositionNaut miles runAvg speedWind from/ knotsBaromVisibWave heightAir tempDewpointWater temp
2015-May-05 23:14N 29°31' W 094°53'811.6
2015-May-05 22:33N 29°37' W 094°58'11 0.3
2015-May-04 04:33N 29°45' W 095°06'6 5.7
2015-May-04 03:33N 29°42' W 095°00'8 8.0
2015-May-04 02:33N 29°35' W 094°56'1211.6
2015-May-04 01:33N 29°25' W 094°49'  
2015-Apr-29 10:04N 29°22' W 094°48'510.2
2015-Apr-29 09:33N 29°27' W 094°51'10 9.8
2015-Apr-29 08:34N 29°35' W 094°56'9 8.6
2015-Apr-29 07:34N 29°43' W 095°01'4 3.7
2015-Apr-29 06:21N 29°45' W 095°06'0 0.0
2015-Apr-29 05:30N 29°45' W 095°06'0 0.0
2015-Apr-29 04:33N 29°45' W 095°06'0 0.0
2015-Apr-29 03:33N 29°45' W 095°06'0 0.0
2015-Apr-29 02:33N 29°45' W 095°06'0 0.0
2015-Apr-29 01:33N 29°45' W 095°06'0 0.0
2015-Apr-29 00:27N 29°45' W 095°06'0 0.0
2015-Apr-28 23:30N 29°45' W 095°06'0 0.0
2015-Apr-28 22:27N 29°45' W 095°06'0 0.0
2015-Apr-28 21:27N 29°45' W 095°06'0 0.0
2015-Apr-28 20:27N 29°45' W 095°06'0 0.0
2015-Apr-28 19:33N 29°45' W 095°06'0 0.0
2015-Apr-28 17:15N 29°45' W 095°06'0 0.0
2015-Apr-28 16:33N 29°45' W 095°06'0 0.0
2015-Apr-28 15:24N 29°45' W 095°06'0 0.0
2015-Apr-28 14:21N 29°45' W 095°06'0 0.0
2015-Apr-28 13:21N 29°45' W 095°06'0 0.0
2015-Apr-28 12:27N 29°45' W 095°06'0 0.0
2015-Apr-28 11:24N 29°45' W 095°06'0 0.0
2015-Apr-28 10:30N 29°45' W 095°06'0 0.0
2015-Apr-28 09:21N 29°45' W 095°06'0 0.0
2015-Apr-28 08:06N 29°45' W 095°06'0 0.0
2015-Apr-28 07:21N 29°45' W 095°06'0 0.0
2015-Apr-28 06:06N 29°45' W 095°06'0 0.0
2015-Apr-28 05:33N 29°45' W 095°06'0 0.0
2015-Apr-28 04:24N 29°45' W 095°06'0 0.0
2015-Apr-28 02:30N 29°45' W 095°06'0 0.0
2015-Apr-28 01:18N 29°45' W 095°06'0 0.0
2015-Apr-28 00:24N 29°45' W 095°06'0 0.0
2015-Apr-27 23:33N 29°45' W 095°06'0 0.0
2015-Apr-27 22:33N 29°45' W 095°06'0 0.0
2015-Apr-27 21:09N 29°45' W 095°06'0 0.0
2015-Apr-27 20:12N 29°45' W 095°06'0 0.0
2015-Apr-27 19:33N 29°45' W 095°06'0 0.0
2015-Apr-27 18:33N 29°45' W 095°06'0 0.0
2015-Apr-27 17:33N 29°45' W 095°06'0 0.0
2015-Apr-27 16:30N 29°45' W 095°06'0 0.0
2015-Apr-27 15:33N 29°45' W 095°06'0 0.0
2015-Apr-27 14:33N 29°45' W 095°06'0 0.0
2015-Apr-27 13:27N 29°45' W 095°06'2 1.8
2015-Apr-27 12:33N 29°44' W 095°08'0 0.0
2015-Apr-27 11:33N 29°44' W 095°08'0 0.0
2015-Apr-27 10:33N 29°44' W 095°08'0 0.0
2015-Apr-27 09:33N 29°44' W 095°08'0 0.0
2015-Apr-27 08:33N 29°44' W 095°08'0 0.0
2015-Apr-27 07:33N 29°44' W 095°08'0 0.0
2015-Apr-27 06:33N 29°44' W 095°08'0 0.0
2015-Apr-27 05:33N 29°44' W 095°08'0 0.0
2015-Apr-27 04:33N 29°44' W 095°08'0 0.0
2015-Apr-27 03:33N 29°44' W 095°08'0 0.0
2015-Apr-27 02:33N 29°44' W 095°08'0 0.0
2015-Apr-27 01:33N 29°44' W 095°08'0 0.0
2015-Apr-27 00:33N 29°44' W 095°08'0 0.0
2015-Apr-26 23:33N 29°44' W 095°08'0 0.0
2015-Apr-26 22:33N 29°44' W 095°08'0 0.0
2015-Apr-26 21:32N 29°44' W 095°08'0 0.0
2015-Apr-26 20:33N 29°44' W 095°08'3 3.1
2015-Apr-26 19:34N 29°46' W 095°05'8 8.2
2015-Apr-26 18:33N 29°40' W 094°58'1313.0
2015-Apr-26 17:33N 29°28' W 094°51'16 1.7
2015-Apr-26 08:30N 29°20' W 094°36'  

Dump ship's entire track history